Latest Weather Observations for Wyndham Airport

IDD60801

Issued at 3:31 pm CST Wednesday 5 August 2015 (issued every 30 minutes, with the page automatically refreshed every 10 minutes)

About weather observations | Map of weather stations | Latest weather observations for NT | Other Formats
Station Details ID: 001006 Name: WYNDHAM AERO Lat: -15.51 Lon: 128.15 Height: 3.8 m
Data from the previous 72 hours. | See also: Recent months for locations in Northern Territory
Date/Time
CST
Temp
°C
App
Temp
°C
Dew
Point
Rel
Hum
%
Delta-T
°C
Wind Press
QNH
hPa
Press
MSL
hPa
Rain
since 9 am
mm
Dir
 
Spd
km/h
Gust
km/h
Spd
kts
Gust
kts
05/03:30pm 28.8 22.7 -2.3 13 14.1 SSE 20 32 11 17 1014.6 1014.6 0.0
05/03:00pm 28.8 22.9 -2.3 13 14.1 SE 19 35 10 19 1014.8 1014.8 0.0
05/02:30pm 28.7 23.2 -2.4 13 14.1 SSE 17 30 9 16 1015.2 1015.2 0.0
05/02:00pm 28.3 22.7 -2.7 13 13.9 SE 17 28 9 15 1015.6 1015.6 0.0
05/01:30pm 28.2 22.4 -1.8 14 13.7 ESE 19 33 10 18 1016.2 1016.2 0.0
05/01:00pm 26.6 20.1 -2.1 15 12.9 ESE 22 32 12 17 1016.9 1016.9 0.0
05/12:30pm 27.2 21.2 -1.7 15 13.1 ESE 20 30 11 16 1017.3 1017.3 0.0
05/12:00pm 25.8 19.8 -1.9 16 12.4 ESE 20 32 11 17 1017.8 1017.8 0.0
05/11:30am 25.7 18.5 -2.0 16 12.3 E 26 37 14 20 1018.3 1018.3 0.0
05/11:00am 25.2 18.4 -1.6 17 12.0 E 24 35 13 19 1018.8 1018.8 0.0
05/10:30am 24.5 17.4 -1.3 18 11.5 E 26 32 14 17 1018.9 1018.9 0.0
05/10:00am 24.4 17.0 -0.7 19 11.3 ESE 28 35 15 19 1018.9 1018.9 0.0
05/09:30am 23.5 15.3 -0.7 20 10.8 ESE 32 41 17 22 1018.8 1018.8 0.0
05/09:00am 22.8 14.7 0.0 22 10.3 ESE 32 41 17 22 1018.5 1018.5 0.0
05/08:30am 21.7 16.6 0.8 25 9.5 ESE 17 22 9 12 1018.2 1018.2 0.0
05/08:00am 20.1 14.7 1.0 28 8.6 E 19 22 10 12 1018.0 1018.0 0.0
05/07:30am 18.3 12.8 0.9 31 7.7 ESE 19 22 10 12 1017.7 1017.7 0.0
05/07:00am 17.2 12.2 1.2 34 7.1 ESE 17 20 9 11 1017.5 1017.5 0.0
05/06:30am 16.9 12.6 1.0 34 7.0 E 13 15 7 8 1017.1 1017.1 0.0
05/06:00am 16.8 13.2 0.9 34 7.0 ESE 9 11 5 6 1016.8 1016.8 0.0
05/05:30am 18.1 14.6 1.2 32 7.5 SE 9 11 5 6 1016.6 1016.6 0.0
05/05:00am 18.4 15.3 1.4 32 7.6 E 7 9 4 5 1016.4 1016.4 0.0
05/04:30am 19.0 16.0 1.1 30 8.0 ENE 6 7 3 4 1016.5 1016.5 0.0
05/04:00am 18.3 14.7 0.4 30 7.8 E 9 13 5 7 1016.5 1016.5 0.0
05/03:30am 18.8 14.4 0.4 29 8.1 SE 13 17 7 9 1016.5 1016.5 0.0
05/03:00am 18.0 14.3 0.2 30 7.8 SE 9 9 5 5 1016.4 1016.4 0.0
05/02:30am 17.9 13.8 0.1 30 7.7 ESE 11 15 6 8 1016.5 1016.5 0.0
05/02:00am 20.2 16.9 0.1 26 8.9 E 7 13 4 7 1016.8 1016.8 0.0
05/01:30am 19.7 16.7 0.7 28 8.5 E 6 7 3 4 1016.9 1016.9 0.0
05/01:00am 20.5 16.9 0.4 26 9.0 E 9 11 5 6 1016.8 1016.8 0.0
05/12:30am 20.6 17.5 1.5 28 8.7 E 7 11 4 6 1016.7 1016.7 0.0
05/12:00am 21.3 17.9 1.6 27 9.1 E 9 11 5 6 1016.8 1016.8 0.0
 
Date/Time
CST
Temp
°C
App
Temp
°C
Dew
Point
Rel
Hum
%
Delta-T
°C
Wind Press
QNH
hPa
Press
MSL
hPa
Rain
since 9 am
mm
Dir
 
Spd
km/h
Gust
km/h
Spd
kts
Gust
kts
04/11:30pm 20.7 17.6 1.1 27 8.9 ENE 7 9 4 5 1016.7 1016.7 0.0
04/11:00pm 21.4 17.9 1.1 26 9.3 E 9 9 5 5 1016.4 1016.4 0.0
04/10:30pm 19.9 16.0 0.9 28 8.5 E 11 11 6 6 1016.3 1016.3 0.0
04/10:00pm 22.3 19.1 0.8 24 9.8 E 7 9 4 5 1016.3 1016.3 0.0
04/09:30pm 23.3 19.8 1.0 23 10.3 E 9 11 5 6 1016.1 1016.1 0.0
04/09:00pm 23.0 19.0 0.8 23 10.2 E 11 13 6 7 1015.9 1015.9 0.0
04/08:30pm 22.9 18.6 0.7 23 10.2 E 13 15 7 8 1015.6 1015.6 0.0
04/08:00pm 24.8 19.7 1.0 21 11.1 SE 17 20 9 11 1015.3 1015.3 0.0
04/07:30pm 26.8 21.2 1.3 19 12.2 SE 20 26 11 14 1014.9 1014.9 0.0
04/07:00pm 27.3 21.3 0.9 18 12.6 SE 22 28 12 15 1014.7 1014.7 0.0
04/06:30pm 28.3 21.9 0.9 17 13.1 SE 24 30 13 16 1014.7 1014.7 0.0
04/06:00pm 29.2 23.5 0.8 16 13.7 SE 20 28 11 15 1014.5 1014.5 0.0
04/05:30pm 30.0 24.4 1.5 16 14.0 SE 20 26 11 14 1014.4 1014.4 0.0
04/05:00pm 30.4 24.8 0.9 15 14.3 SE 20 33 11 18 1014.4 1014.4 0.0
04/04:30pm 30.7 25.1 1.1 15 14.5 SSE 20 33 11 18 1014.3 1014.3 0.0
04/04:00pm 31.0 25.4 1.4 15 14.6 SE 20 28 11 15 1014.6 1014.6 0.0
04/03:30pm 31.0 25.8 2.3 16 14.3 ESE 19 35 10 19 1014.9 1014.9 0.0
04/03:00pm 30.7 24.8 2.0 16 14.2 SE 22 30 12 16 1015.4 1015.4 0.0
04/02:30pm 30.3 24.8 1.7 16 14.1 SE 20 28 11 15 1015.9 1015.9 0.0
04/02:00pm 30.6 23.6 1.9 16 14.2 ESE 28 43 15 23 1016.3 1016.3 0.0
04/01:30pm 29.7 22.6 1.2 16 13.8 SE 28 37 15 20 1016.8 1016.8 0.0
04/01:00pm 29.5 22.9 1.9 17 13.6 SE 26 37 14 20 1017.3 1017.3 0.0
04/12:30pm 28.7 22.1 2.1 18 13.0 SE 26 39 14 21 1018.0 1018.0 0.0
04/12:00pm 28.8 21.8 2.1 18 13.1 SE 28 39 15 21 1018.4 1018.4 0.0
04/11:30am 28.7 22.1 2.1 18 13.0 SE 26 37 14 20 1019.0 1019.0 0.0
04/11:00am 27.4 20.6 1.0 18 12.6 SE 26 35 14 19 1019.4 1019.4 0.0
04/10:30am 27.0 19.0 1.4 19 12.2 ESE 33 43 18 23 1019.3 1019.3 0.0
04/10:00am 26.3 17.2 1.6 20 11.8 ESE 39 48 21 26 1019.2 1019.2 0.0
04/09:30am 25.8 16.7 1.8 21 11.4 ESE 39 50 21 27 1018.9 1018.9 0.0
04/09:00am 25.2 17.3 2.0 22 11.1 ESE 33 41 18 22 1018.6 1018.6 0.0
04/08:30am 24.3 17.0 2.5 24 10.4 ESE 30 39 16 21 1018.3 1018.3 0.0
04/08:00am 23.1 16.5 2.0 25 9.9 E 26 32 14 17 1017.9 1017.9 0.0
04/07:30am 22.8 15.9 2.3 26 9.7 E 28 32 15 17 1017.6 1017.6 0.0
04/07:00am 23.3 16.4 2.7 26 9.8 ESE 28 37 15 20 1017.2 1017.2 0.0
04/06:30am 22.5 17.2 3.1 28 9.3 ESE 20 26 11 14 1016.8 1016.8 0.0
04/06:00am 22.5 18.0 4.1 30 9.0 ESE 17 22 9 12 1016.5 1016.5 0.0
04/05:30am 23.0 18.0 4.5 30 9.1 ESE 20 26 11 14 1016.3 1016.3 0.0
04/05:00am 23.3 18.3 4.8 30 9.2 ESE 20 24 11 13 1016.2 1016.2 0.0
04/04:30am 23.3 18.7 5.7 32 8.9 E 19 22 10 12 1016.3 1016.3 0.0
04/04:00am 22.9 18.4 6.2 34 8.5 E 19 20 10 11 1016.2 1016.2 0.0
04/03:30am 22.3 17.8 6.1 35 8.2 ESE 19 20 10 11 1016.0 1016.0 0.0
04/03:00am 22.3 18.9 5.7 34 8.3 ESE 13 19 7 10 1016.0 1016.0 0.0
04/02:30am 23.4 19.9 7.1 35 8.4 E 15 19 8 10 1016.0 1016.0 0.0
04/02:00am 23.8 20.2 8.2 37 8.3 E 17 20 9 11 1016.1 1016.1 0.0
04/01:30am 22.7 19.5 9.8 44 7.0 E 17 20 9 11 1016.1 1016.1 0.0
04/01:00am 19.8 18.4 10.8 56 4.9 E 9 11 5 6 1016.1 1016.1 0.0
04/12:30am 21.4 19.2 12.0 55 5.3 E 15 15 8 8 1016.1 1016.1 0.0
04/12:00am 20.4 19.0 10.8 54 5.2 ESE 9 13 5 7 1016.2 1016.2 0.0
 
Date/Time
CST
Temp
°C
App
Temp
°C
Dew
Point
Rel
Hum
%
Delta-T
°C
Wind Press
QNH
hPa
Press
MSL
hPa
Rain
since 9 am
mm
Dir
 
Spd
km/h
Gust
km/h
Spd
kts
Gust
kts
03/11:30pm 20.4 20.8 11.1 55 5.1 CALM 0 0 0 0 1016.1 1016.1 0.0
03/11:00pm 22.4 22.8 11.2 49 6.2 CALM 0 0 0 0 1015.8 1015.8 0.0
03/10:30pm 23.2 22.6 12.2 50 6.2 ENE 7 9 4 5 1015.9 1015.9 0.0
03/10:00pm 24.0 23.8 11.7 46 6.9 SE 4 7 2 4 1015.8 1015.8 0.0
03/09:30pm 24.0 23.7 12.6 49 6.5 SE 6 9 3 5 1015.7 1015.7 0.0
03/09:00pm 24.5 23.7 11.1 43 7.5 SW 6 7 3 4 1015.6 1015.6 0.0
03/08:30pm 26.3 25.7 11.6 40 8.4 ESE 6 9 3 5 1015.2 1015.2 0.0
03/08:00pm 28.2 26.5 12.5 37 9.2 N 13 17 7 9 1014.6 1014.6 0.0
03/07:30pm 28.6 26.0 12.1 36 9.6 N 17 22 9 12 1014.3 1014.3 0.0
03/07:00pm 28.9 26.5 12.8 37 9.5 N 17 24 9 13 1013.9 1013.9 0.0
03/06:30pm 30.1 27.6 13.4 36 10.0 N 19 24 10 13 1013.6 1013.6 0.0
03/06:00pm 31.2 28.5 13.0 33 10.8 N 19 26 10 14 1013.2 1013.2 0.0
03/05:30pm 32.1 29.1 11.8 29 11.9 NNW 19 24 10 13 1013.1 1013.1 0.0
03/05:00pm 32.7 31.2 11.8 28 12.3 NW 11 22 6 12 1013.1 1013.1 0.0
03/04:30pm 33.0 30.4 12.1 28 12.4 NW 17 24 9 13 1013.0 1013.0 0.0
03/04:00pm 33.3 30.2 12.3 28 12.5 NW 20 35 11 19 1013.2 1013.2 0.0
03/03:30pm 32.6 29.9 12.8 30 11.8 NNW 19 26 10 14 1013.3 1013.3 0.0
03/03:00pm 32.8 29.5 12.9 29 11.9 N 22 30 12 16 1013.3 1013.3 0.0
03/02:30pm 33.2 30.3 12.8 29 12.2 NNW 20 28 11 15 1013.7 1013.7 0.0
03/02:00pm 32.7 30.0 11.8 28 12.3 N 17 24 9 13 1014.3 1014.3 0.0
03/01:30pm 32.8 30.7 11.3 27 12.6 N 13 19 7 10 1014.9 1014.9 0.0
03/01:00pm 32.7 30.6 11.3 27 12.5 NNE 13 20 7 11 1015.6 1015.6 0.0
03/12:30pm 32.2 29.2 10.8 27 12.4 NNE 17 26 9 14 1016.1 1016.1 0.0
03/12:00pm 31.1 29.3 11.0 29 11.6 W 11 20 6 11 1016.2 1016.2 0.0
03/11:30am 29.8 28.4 10.9 31 10.8 SW 9 15 5 8 1016.5 1016.5 0.0
03/11:00am 28.2 27.5 11.3 35 9.7 SW 6 11 3 6 1016.8 1016.8 0.0
03/10:30am 27.1 26.5 11.6 38 8.9 SSW 6 9 3 5 1016.9 1016.9 0.0
03/10:00am 26.2 25.8 11.2 39 8.5 S 4 9 2 5 1017.0 1017.0 0.0
03/09:30am 24.4 23.7 12.0 46 7.0 E 7 11 4 6 1016.8 1016.8 0.0
03/09:00am 22.5 20.7 12.2 52 5.8 ESE 13 15 7 8 1016.8 1016.8 0.0
03/08:30am 20.9 20.0 12.6 59 4.7 E 9 13 5 7 1016.5 1016.5 0.0
03/08:00am 18.0 16.1 11.8 67 3.4 E 13 15 7 8 1016.2 1016.2 0.0
03/07:30am 16.3 14.0 10.4 68 3.1 E 13 15 7 8 1015.9 1015.9 0.0
03/07:00am 15.9 14.4 8.6 62 3.7 ESE 6 9 3 5 1015.6 1015.6 0.0
03/06:30am 17.1 16.0 9.8 62 3.8 SW 6 7 3 4 1015.3 1015.3 0.0
03/06:00am 17.4 16.1 10.1 62 3.9 WNW 7 9 4 5 1014.9 1014.9 0.0
03/05:30am 18.4 17.7 11.5 64 3.8 WSW 6 7 3 4 1014.7 1014.7 0.0
03/05:00am 17.6 15.7 9.0 57 4.5 W 9 11 5 6 1014.5 1014.5 0.0
03/04:30am 17.0 14.9 8.4 57 4.4 WNW 9 9 5 5 1014.5 1014.5 0.0
03/04:00am 18.3 17.3 11.1 63 3.9 WNW 7 9 4 5 1014.8 1014.8 0.0
03/03:30am 18.0 16.6 10.9 63 3.8 NW 9 11 5 6 1014.8 1014.8 0.0
03/03:00am 18.5 17.7 11.1 62 4.0 NW 6 7 3 4 1015.0 1015.0 0.0
03/02:30am 18.8 16.8 11.6 63 3.9 SSW 13 15 7 8 1015.4 1015.4 0.0
03/02:00am 18.3 16.8 8.3 52 5.1 SSE 6 9 3 5 1015.3 1015.3 0.0
03/01:30am 20.3 19.5 11.8 58 4.7 E 7 9 4 5 1015.4 1015.4 0.0
03/01:00am 19.1 17.7 10.9 59 4.5 E 9 9 5 5 1015.6 1015.6 0.0
03/12:30am 19.5 17.8 10.0 54 5.1 E 9 11 5 6 1015.6 1015.6 0.0
03/12:00am 21.5 21.0 12.1 55 5.3 ENE 6 7 3 4 1015.6 1015.6 0.0
 
Date/Time
CST
Temp
°C
App
Temp
°C
Dew
Point
Rel
Hum
%
Delta-T
°C
Wind Press
QNH
hPa
Press
MSL
hPa
Rain
since 9 am
mm
Dir
 
Spd
km/h
Gust
km/h
Spd
kts
Gust
kts
02/11:30pm 21.0 20.2 11.6 55 5.2 ESE 7 9 4 5 1015.9 1015.9 0.0
02/11:00pm 20.8 20.5 10.0 50 5.8 E 2 7 1 4 1015.9 1015.9 0.0
02/10:30pm 22.5 21.0 10.6 47 6.5 ESE 9 11 5 6 1015.7 1015.7 0.0
02/10:00pm 23.7 23.1 11.7 47 6.8 ESE 6 9 3 5 1015.6 1015.6 0.0
02/09:30pm 24.6 23.0 11.5 44 7.4 SE 11 13 6 7 1015.5 1015.5 0.0
02/09:00pm 24.5 23.0 9.3 38 8.3 SE 7 9 4 5 1015.2 1015.2 0.0
02/08:30pm 27.0 26.2 9.8 34 9.5 ESE 4 9 2 5 1015.0 1015.0 0.0
02/08:00pm 27.0 25.9 9.8 34 9.5 SE 6 9 3 5 1014.5 1014.5 0.0
02/07:30pm 27.9 24.9 10.6 34 9.8 N 17 22 9 12 1014.1 1014.1 0.0
02/07:00pm 28.2 25.3 10.9 34 9.8 N 17 24 9 13 1013.7 1013.7 0.0
02/06:30pm 28.9 24.9 10.6 32 10.4 N 22 32 12 17 1013.3 1013.3 0.0
02/06:00pm 29.8 25.3 11.3 32 10.7 N 26 35 14 19 1013.0 1013.0 0.0
02/05:30pm 30.8 26.0 10.2 28 11.7 N 26 33 14 18 1012.9 1012.9 0.0

Other Formats:

Comma delimited format used in spreadsheet applications
http://www.bom.gov.au/fwo/IDD60801/IDD60801.95214.axf

JavaScript Object Notation format (JSON) in row-major order
http://www.bom.gov.au/fwo/IDD60801/IDD60801.95214.json